KTTD

Portland-Troutdale Airport

Portland, Oregon, USA
KTTD 191730Z 1918/2018 26004KT P6SM SCT200 FM192300 30004KT P6SM FEW040 SCT100 FM200300 28005KT P6SM SCT040 OVC080 FM200800 VRB03KT P6SM SCT025 OVC040 FM201200 VRB03KT P6SM BKN025 OVC035
Issued Valid From Valid To
Sep-19 @ 17:30 UTC
(5 hours ago)
Sep-19 @ 18:00 UTC
(5 hours ago)
Sep-20 @ 18:00 UTC
(in 19 hours)
Sep-19 @ 18:00 to Sep-19 @ 23:00
KTTD 191730Z 1918/2018 26004KT P6SM SCT200
Wind Visibility Clouds
260° at 4 knots Greater than 6 miles
  • Scattered at 20,000' AGL
From Sep-19 @ 23:00 to Sep-20 @ 03:00
FM192300 30004KT P6SM FEW040 SCT100
Wind Visibility Clouds
300° at 4 knots Greater than 6 miles
  • Few at 4,000' AGL
  • Scattered at 10,000' AGL
From Sep-20 @ 03:00 to Sep-20 @ 08:00
FM200300 28005KT P6SM SCT040 OVC080
Wind Visibility Clouds
280° at 5 knots Greater than 6 miles
  • Scattered at 4,000' AGL
  • Overcast at 8,000' AGL
From Sep-20 @ 08:00 to Sep-20 @ 12:00
FM200800 VRB03KT P6SM SCT025 OVC040
Wind Visibility Clouds
Variable at 3 knots Greater than 6 miles
  • Scattered at 2,500' AGL
  • Overcast at 4,000' AGL
From Sep-20 @ 12:00 to Sep-20 @ 18:00
FM201200 VRB03KT P6SM BKN025 OVC035
Wind Visibility Clouds
Variable at 3 knots Greater than 6 miles
  • Broken at 2,500' AGL
  • Overcast at 3,500' AGL
KTTD 191730Z 1918/2018 26004KT P6SM SCT200 FM192300 30004KT P6SM FEW040 SCT100 FM200300 28005KT P6SM SCT040 OVC080 FM200800 VRB03KT P6SM SCT025 OVC040 FM201200 VRB03KT P6SM BKN025 OVC035
Issued Sep-19 @ 17:30 UTC
(5 hours ago)
Valid From Sep-19 @ 18:00 UTC
(5 hours ago)
Valid To Sep-20 @ 18:00 UTC
(in 19 hours)
Sep-19 @ 18:00 - Sep-19 @ 23:00
Wind Visibility
260° at 4 knots Greater than 6 miles
Clouds
  • Scattered at 20,000' AGL
From Sep-19 @ 23:00 - Sep-20 @ 03:00
Wind Visibility
300° at 4 knots Greater than 6 miles
Clouds
  • Few at 4,000' AGL
  • Scattered at 10,000' AGL
From Sep-20 @ 03:00 - Sep-20 @ 08:00
Wind Visibility
280° at 5 knots Greater than 6 miles
Clouds
  • Scattered at 4,000' AGL
  • Overcast at 8,000' AGL
From Sep-20 @ 08:00 - Sep-20 @ 12:00
Wind Visibility
Variable at 3 knots Greater than 6 miles
Clouds
  • Scattered at 2,500' AGL
  • Overcast at 4,000' AGL
From Sep-20 @ 12:00 - Sep-20 @ 18:00
Wind Visibility
Variable at 3 knots Greater than 6 miles
Clouds
  • Broken at 2,500' AGL
  • Overcast at 3,500' AGL